Terminal Aerodrome Forecast
Issued by NWS Caribou, ME

Home | Current Version | Previous Version | Text Only | Print | Product List | Glossary On
Versions: 1 2 3 4 5 6 7 8 9 10 11 12 13 14 15 16 17
000
FTUS41 KCAR 251121
TAFBGR
TAF
KBGR 251121Z 2512/2612 23006KT P6SM SCT180 BKN250
     FM251700 25010G18KT P6SM SCT070 BKN250
     FM260200 20007KT P6SM OVC020
     FM260400 18007KT 5SM -SHRA BR OVC015=

USA.gov is the U.S. government's official web portal to all federal, state and local government web resources and services.